createdAt,value
2017-12-03T15:47:40.264Z,12.70
2017-12-03T15:50:08.333Z,13.05
2017-12-03T15:52:35.854Z,12.10
2017-12-03T15:55:03.447Z,10.98
2017-12-03T15:57:30.944Z,11.50
2017-12-03T15:59:58.515Z,14.02
2017-12-03T16:02:26.787Z,9.77
2017-12-03T16:04:54.312Z,11.27
2017-12-03T16:07:21.877Z,12.93
2017-12-03T16:09:49.401Z,13.30
2017-12-03T16:12:16.907Z,12.10
2017-12-03T16:14:44.467Z,12.60
2017-12-03T16:17:12.002Z,13.55
2017-12-03T16:19:39.555Z,11.90
2017-12-03T16:22:07.067Z,14.75
2017-12-03T16:24:35.381Z,16.55
2017-12-03T16:27:03.028Z,13.88
2017-12-03T16:29:30.549Z,12.13
2017-12-03T16:31:58.100Z,11.65
2017-12-03T16:34:25.631Z,11.23
2017-12-03T16:36:53.162Z,14.80
2017-12-03T16:39:21.454Z,15.23
2017-12-03T16:41:48.980Z,10.38
2017-12-03T16:44:16.538Z,14.10
2017-12-03T16:46:44.051Z,13.82
2017-12-03T16:49:11.550Z,13.13
2017-12-03T16:51:39.058Z,13.93
2017-12-03T16:54:06.585Z,10.55
2017-12-03T16:56:34.154Z,10.95
2017-12-03T16:59:02.448Z,11.75
2017-12-03T17:01:30.010Z,15.07
2017-12-03T17:03:57.525Z,10.43
2017-12-03T17:06:25.353Z,12.20
2017-12-03T17:08:53.026Z,11.68
2017-12-03T17:11:20.586Z,11.85
2017-12-03T17:13:48.108Z,12.63
2017-12-03T17:16:15.617Z,14.52
2017-12-03T17:18:43.128Z,13.77
2017-12-03T17:21:11.427Z,10.55
2017-12-03T17:23:38.938Z,14.70
2017-12-03T17:26:06.460Z,16.00
2017-12-03T17:28:34.045Z,14.55
2017-12-03T17:31:01.574Z,14.82
2017-12-03T17:33:29.123Z,15.95
2017-12-03T17:35:57.910Z,13.40
2017-12-03T17:38:25.439Z,13.25
2017-12-03T17:40:52.985Z,18.80
2017-12-03T17:43:20.510Z,13.85
2017-12-03T17:45:48.166Z,13.00
2017-12-03T17:48:15.750Z,17.48
2017-12-03T17:50:43.407Z,14.32
2017-12-03T17:53:11.331Z,13.40
2017-12-03T17:55:38.994Z,15.05
2017-12-03T17:58:06.823Z,14.05
2017-12-03T18:00:34.529Z,13.18
2017-12-03T18:03:02.046Z,15.95
2017-12-03T18:05:30.163Z,16.02
2017-12-03T18:07:57.676Z,15.50
2017-12-03T18:10:25.331Z,15.20
2017-12-03T18:12:52.856Z,16.70
2017-12-03T18:15:20.379Z,15.00
2017-12-03T18:17:48.657Z,14.35
2017-12-03T18:20:16.914Z,15.30
2017-12-03T18:22:44.484Z,11.35
2017-12-03T18:25:12.261Z,12.77
2017-12-03T18:27:40.695Z,17.35
2017-12-03T18:30:08.212Z,9.98
2017-12-03T18:32:36.516Z,12.77
2017-12-03T18:35:04.060Z,15.90
2017-12-03T18:37:31.729Z,15.65
2017-12-03T18:39:59.259Z,14.85
2017-12-03T18:42:28.702Z,15.88
2017-12-03T18:44:56.365Z,15.70
2017-12-03T18:47:24.021Z,13.98
2017-12-03T18:49:51.693Z,15.80
2017-12-03T18:52:19.275Z,17.00
2017-12-03T18:54:46.840Z,17.17
2017-12-03T18:57:15.222Z,14.85
2017-12-03T18:59:42.957Z,17.55
2017-12-03T19:02:10.711Z,14.43
2017-12-03T19:04:38.277Z,19.67
2017-12-03T19:07:05.802Z,20.23
2017-12-03T19:09:34.083Z,18.55
2017-12-03T19:12:02.405Z,21.65
2017-12-03T19:14:30.971Z,18.55
2017-12-03T19:16:59.839Z,21.60
2017-12-03T19:19:27.386Z,20.20
2017-12-03T19:21:55.765Z,22.13
2017-12-03T19:24:24.098Z,16.50
2017-12-03T19:26:51.695Z,12.43
2017-12-03T19:29:19.251Z,9.50
2017-12-03T19:31:46.769Z,18.73
2017-12-03T19:34:14.568Z,19.33
2017-12-03T19:36:42.125Z,15.15
2017-12-03T19:39:09.740Z,15.13
2017-12-03T19:41:37.280Z,20.27
2017-12-03T19:44:04.846Z,21.60
2017-12-03T19:46:32.400Z,21.15
2017-12-03T19:48:59.941Z,20.00
2017-12-03T19:51:27.485Z,23.00
2017-12-03T19:53:55.026Z,23.83
2017-12-03T19:56:22.610Z,21.10
2017-12-03T19:58:50.369Z,22.42
2017-12-03T20:01:17.942Z,23.20
2017-12-03T20:03:45.633Z,23.23
2017-12-03T20:06:13.359Z,23.10
2017-12-03T20:08:40.993Z,19.02
2017-12-03T20:11:09.020Z,24.33
2017-12-03T20:13:36.692Z,23.33
2017-12-03T20:16:04.324Z,22.42
2017-12-03T20:18:31.883Z,22.37
2017-12-03T20:26:37.870Z,24.00
2017-12-03T20:29:12.785Z,25.00
2017-12-03T20:31:40.530Z,25.02
2017-12-03T20:34:08.065Z,24.05
2017-12-03T20:36:36.480Z,25.58
2017-12-03T20:39:04.045Z,24.50
2017-12-03T20:41:31.644Z,24.05
2017-12-03T20:43:59.164Z,23.80
2017-12-03T20:46:26.742Z,22.05
2017-12-03T20:48:54.348Z,24.27
2017-12-03T20:51:22.021Z,25.90
2017-12-03T20:53:49.609Z,23.02
2017-12-03T20:56:17.176Z,23.40
2017-12-03T20:58:44.790Z,23.15
2017-12-03T21:01:12.307Z,23.02
2017-12-03T21:03:39.832Z,23.30
2017-12-03T21:06:07.346Z,23.05
2017-12-03T21:08:34.876Z,24.87
2017-12-03T21:11:03.247Z,27.52
2017-12-03T21:13:30.758Z,24.80
2017-12-03T21:15:58.352Z,27.85
2017-12-03T21:18:25.877Z,24.83
2017-12-03T21:20:53.456Z,20.27
2017-12-03T21:23:20.981Z,25.55
2017-12-03T21:25:48.490Z,25.75
2017-12-03T21:28:15.999Z,24.63
2017-12-03T21:30:43.517Z,27.67
2017-12-03T21:33:11.164Z,27.85
2017-12-03T21:35:38.703Z,26.20
2017-12-03T21:38:06.271Z,26.75
2017-12-03T21:40:34.558Z,26.95
2017-12-03T21:43:02.077Z,26.60
2017-12-03T21:45:29.643Z,22.42
2017-12-03T21:47:57.169Z,26.42
2017-12-03T21:50:24.693Z,25.85
2017-12-03T21:52:52.268Z,24.23
2017-12-03T21:55:19.927Z,24.98
2017-12-03T21:57:47.448Z,27.55
2017-12-03T22:00:16.940Z,24.73
2017-12-03T22:02:44.464Z,27.75
2017-12-03T22:05:11.999Z,24.58
2017-12-03T22:07:40.284Z,25.15
2017-12-03T22:10:07.811Z,23.75
2017-12-03T22:12:35.349Z,23.73
2017-12-03T22:15:02.990Z,22.08
2017-12-03T22:17:30.530Z,24.98
2017-12-03T22:19:58.250Z,20.03
2017-12-03T22:22:25.752Z,22.47
2017-12-03T22:24:53.251Z,23.60
2017-12-03T22:27:20.755Z,22.92
2017-12-03T22:29:48.268Z,23.35
2017-12-03T22:32:15.772Z,24.12
2017-12-03T22:34:43.279Z,24.80
2017-12-03T22:37:10.788Z,19.10
2017-12-03T22:39:39.050Z,21.90
2017-12-03T22:42:07.404Z,21.05
2017-12-03T22:44:34.985Z,21.77
2017-12-03T22:47:03.277Z,23.60
2017-12-03T22:49:31.555Z,25.90
2017-12-03T22:51:59.820Z,25.30
2017-12-03T22:54:28.111Z,21.40
2017-12-03T22:56:56.379Z,21.23
2017-12-03T22:59:24.660Z,22.27
2017-12-03T23:01:52.927Z,22.80
2017-12-03T23:04:20.461Z,21.87
2017-12-03T23:06:47.965Z,20.05
2017-12-03T23:09:16.670Z,23.50
2017-12-03T23:11:44.183Z,21.77
2017-12-03T23:14:11.698Z,23.60
2017-12-03T23:16:40.087Z,22.67
2017-12-03T23:19:07.609Z,24.05
2017-12-03T23:21:35.126Z,25.00
2017-12-03T23:24:02.684Z,20.25
2017-12-03T23:26:30.224Z,23.92
2017-12-03T23:28:57.730Z,22.90
2017-12-03T23:31:25.232Z,23.60
2017-12-03T23:33:52.847Z,23.55
2017-12-03T23:36:20.362Z,22.05
2017-12-03T23:38:47.871Z,24.17
2017-12-03T23:41:16.127Z,20.60
2017-12-03T23:43:44.563Z,24.33
2017-12-03T23:46:12.066Z,24.27
2017-12-03T23:48:39.591Z,22.30
2017-12-03T23:51:07.128Z,25.00
2017-12-03T23:53:34.645Z,21.37
2017-12-03T23:56:02.162Z,23.10
2017-12-03T23:58:29.683Z,22.17
